Time;durP1;ratioP1;P1;durP2;ratioP2;P2;SDS_P1;SDS_P2;PMS_P1;PMS_P2;Temp;Humidity;BMP_temperature;BMP_pressure;BME280_temperature;BME280_humidity;BME280_pressure;Samples;Min_cycle;Max_cycle;Signal;HPM_P1;HPM_P2
2022/07/24 00:01:00;;;;;;;0.65;0.65;;;25.30;49.10;24.50;101596.00;;;;5023526;28;20464;-66
2022/07/24 00:03:47;;;;;;;0.60;0.60;;;25.30;49.00;24.50;101590.00;;;;5021891;28;20045;-66
2022/07/24 00:06:33;;;;;;;1.10;1.00;;;25.40;49.20;24.50;101600.00;;;;5026165;28;20040;-66
2022/07/24 00:09:19;;;;;;;0.60;0.60;;;25.40;49.30;24.50;101592.00;;;;5023286;28;20521;-66
2022/07/24 00:12:05;;;;;;;0.80;0.80;;;25.30;49.20;24.50;101588.00;;;;5020367;28;20042;-66
2022/07/24 00:14:51;;;;;;;0.70;0.70;;;25.30;49.30;24.50;101591.00;;;;5025729;28;20044;-66
2022/07/24 00:17:37;;;;;;;0.75;0.75;;;25.30;49.30;24.50;101591.00;;;;5023078;28;20038;-66
2022/07/24 00:20:23;;;;;;;1.27;0.90;;;25.30;49.10;24.40;101586.00;;;;5029118;28;20481;-66
2022/07/24 00:23:09;;;;;;;0.70;0.70;;;25.30;49.10;24.40;101583.00;;;;5021360;28;20045;-66
2022/07/24 00:25:55;;;;;;;0.70;0.70;;;25.30;49.00;24.40;101585.00;;;;5019582;28;20083;-66
2022/07/24 00:28:41;;;;;;;2.05;0.80;;;25.30;49.00;24.40;101583.00;;;;5022223;28;20041;-66
2022/07/24 00:31:27;;;;;;;0.70;0.70;;;25.30;49.00;24.40;101585.00;;;;5020202;28;20045;-66
2022/07/24 00:34:13;;;;;;;0.98;0.73;;;25.30;49.00;24.40;101588.00;;;;5020721;28;20107;-66
2022/07/24 00:36:59;;;;;;;0.70;0.70;;;25.30;48.90;24.40;101592.00;;;;5026041;28;20048;-66
2022/07/24 00:39:47;;;;;;;0.70;0.70;;;25.30;48.90;24.40;101588.00;;;;5021179;28;20041;-66
2022/07/24 00:42:33;;;;;;;0.73;0.73;;;25.30;48.90;24.40;101590.00;;;;5022767;28;20044;-66
2022/07/24 00:45:19;;;;;;;0.70;0.70;;;25.40;48.90;24.40;101585.00;;;;5023306;28;20107;-66
2022/07/24 00:48:06;;;;;;;0.80;0.80;;;25.30;48.80;24.40;101579.00;;;;5039621;28;20041;-66
2022/07/24 00:50:52;;;;;;;1.05;0.90;;;25.30;48.80;24.40;101581.00;;;;5021730;28;20037;-66
2022/07/24 00:53:38;;;;;;;0.98;0.60;;;25.30;48.80;24.50;101585.00;;;;5022192;28;20048;-66
2022/07/24 00:56:24;;;;;;;0.98;0.88;;;25.30;48.70;24.40;101575.00;;;;5024944;28;20168;-66
2022/07/24 00:59:10;;;;;;;1.40;0.80;;;25.30;48.70;24.40;101579.00;;;;5037269;28;20083;-66
2022/07/24 01:01:56;;;;;;;0.93;0.70;;;25.30;48.90;24.50;101573.00;;;;5020491;28;20064;-66
2022/07/24 01:04:42;;;;;;;0.70;0.70;;;25.40;48.90;24.40;101566.00;;;;5022273;28;20095;-67
2022/07/24 01:07:28;;;;;;;0.65;0.65;;;25.30;48.90;24.40;101571.00;;;;5022678;28;20417;-66
2022/07/24 01:10:15;;;;;;;0.88;0.88;;;25.30;48.80;24.40;101566.00;;;;5023410;28;20045;-66
2022/07/24 01:13:01;;;;;;;1.42;0.90;;;25.30;48.80;24.50;101563.00;;;;5019660;28;20125;-66
2022/07/24 01:15:47;;;;;;;0.80;0.80;;;25.40;48.80;24.40;101562.00;;;;5038562;28;20091;-66
2022/07/24 01:18:33;;;;;;;1.73;0.77;;;25.30;48.80;24.40;101571.00;;;;5020880;28;20151;-66
2022/07/24 01:21:20;;;;;;;0.90;0.90;;;25.30;48.70;24.40;101563.00;;;;5024545;28;20462;-66
2022/07/24 01:24:06;;;;;;;1.02;0.90;;;25.30;48.80;24.40;101567.00;;;;5023409;28;20033;-66
2022/07/24 01:26:52;;;;;;;0.90;0.82;;;25.30;48.80;24.40;101561.00;;;;5021580;28;20033;-66
2022/07/24 01:29:38;;;;;;;1.10;0.75;;;25.30;48.70;24.40;101568.00;;;;5025654;28;20040;-66
2022/07/24 01:32:24;;;;;;;0.77;0.68;;;25.30;48.70;24.40;101559.00;;;;5021706;28;20045;-66
2022/07/24 01:35:10;;;;;;;1.00;0.90;;;25.30;48.80;24.40;101565.00;;;;5026562;28;20056;-66
2022/07/24 01:37:56;;;;;;;2.20;0.80;;;25.40;48.80;24.40;101566.00;;;;5019852;28;20041;-66
2022/07/24 01:40:42;;;;;;;1.00;0.80;;;25.30;48.80;24.40;101563.00;;;;5019828;28;20041;-66
2022/07/24 01:43:28;;;;;;;0.80;0.75;;;25.30;48.90;24.40;101565.00;;;;5022704;28;20048;-66
2022/07/24 01:46:14;;;;;;;1.25;0.88;;;25.30;48.80;24.40;101566.00;;;;5023030;28;20041;-66
2022/07/24 01:49:00;;;;;;;1.15;0.85;;;25.30;48.80;24.40;101564.00;;;;5022549;28;20459;-66
2022/07/24 01:51:46;;;;;;;0.85;0.70;;;25.30;48.80;24.40;101555.00;;;;5016871;28;20042;-66
2022/07/24 01:54:32;;;;;;;1.05;0.77;;;25.30;48.80;24.40;101563.00;;;;5021598;28;20048;-66
2022/07/24 01:57:18;;;;;;;0.90;0.90;;;25.30;48.70;24.40;101562.00;;;;5025874;28;20097;-66
2022/07/24 02:00:08;;;;;;;0.88;0.80;;;25.20;48.80;24.40;101559.00;;;;5024281;28;20045;-67
2022/07/24 02:02:54;;;;;;;2.17;0.95;;;25.30;48.80;24.40;101563.00;;;;5026846;28;20083;-66
2022/07/24 02:05:40;;;;;;;0.70;0.70;;;25.20;48.70;24.40;101565.00;;;;5017030;28;20046;-66
2022/07/24 02:08:26;;;;;;;1.63;1.00;;;25.30;48.80;24.40;101560.00;;;;5014108;28;20041;-66
2022/07/24 02:11:12;;;;;;;0.80;0.80;;;25.20;48.70;24.40;101559.00;;;;5025470;28;20096;-66
2022/07/24 02:14:00;;;;;;;0.77;0.77;;;25.30;48.80;24.40;101559.00;;;;5024304;28;20041;-66
2022/07/24 02:16:46;;;;;;;1.08;0.98;;;25.20;48.70;24.40;101551.00;;;;5029325;28;20099;-66
2022/07/24 02:19:32;;;;;;;1.17;0.88;;;25.20;48.80;24.40;101557.00;;;;5026929;28;20036;-66
2022/07/24 02:22:18;;;;;;;0.98;0.82;;;25.30;49.00;24.30;101558.00;;;;5020396;28;20420;-66
2022/07/24 02:25:05;;;;;;;0.80;0.80;;;25.20;48.90;24.40;101555.00;;;;5026197;28;20115;-66
2022/07/24 02:27:51;;;;;;;0.85;0.80;;;25.20;48.80;24.40;101556.00;;;;5022659;28;20037;-66
2022/07/24 02:30:37;;;;;;;0.80;0.70;;;25.20;48.80;24.30;101554.00;;;;5028103;28;20033;-66
2022/07/24 02:33:24;;;;;;;1.25;0.88;;;25.20;48.80;24.30;101547.00;;;;5021029;28;20760;-66
2022/07/24 02:36:10;;;;;;;1.25;0.95;;;25.20;48.70;24.30;101540.00;;;;5029609;28;20068;-66
2022/07/24 02:38:56;;;;;;;1.08;0.98;;;25.20;48.80;24.30;101535.00;;;;5025530;28;20044;-66
2022/07/24 02:41:42;;;;;;;0.73;0.73;;;25.20;48.70;24.30;101526.00;;;;5021527;28;20091;-66
2022/07/24 02:44:28;;;;;;;1.70;1.00;;;25.20;48.70;24.30;101531.00;;;;5035480;28;20052;-66
2022/07/24 02:47:14;;;;;;;0.77;0.77;;;25.20;48.70;24.30;101523.00;;;;5029838;28;20454;-66
2022/07/24 02:50:00;;;;;;;1.15;0.85;;;25.20;48.80;24.30;101526.00;;;;5029914;28;20026;-66
2022/07/24 02:52:46;;;;;;;1.15;1.02;;;25.20;48.80;24.30;101517.00;;;;5026823;28;20039;-66
2022/07/24 02:55:32;;;;;;;0.88;0.85;;;25.20;48.80;24.30;101525.00;;;;5024509;28;20066;-66
2022/07/24 02:58:18;;;;;;;1.08;1.00;;;25.20;48.80;24.30;101528.00;;;;5030204;28;20052;-66
2022/07/24 03:01:05;;;;;;;0.98;0.98;;;25.10;48.70;24.30;101526.00;;;;5023376;28;20053;-66
2022/07/24 03:03:51;;;;;;;0.95;0.95;;;25.20;48.80;24.30;101523.00;;;;5024592;28;20505;-66
2022/07/24 03:06:37;;;;;;;1.33;0.80;;;25.10;48.70;24.30;101520.00;;;;5024184;28;20033;-66
2022/07/24 03:09:23;;;;;;;0.95;0.75;;;25.20;48.90;24.30;101517.00;;;;5028443;28;20407;-66
2022/07/24 03:12:09;;;;;;;1.38;1.20;;;25.10;48.70;24.30;101506.00;;;;5029405;28;20273;-66
2022/07/24 03:14:55;;;;;;;1.38;1.05;;;25.20;48.80;24.30;101518.00;;;;5025687;28;20038;-66
2022/07/24 03:17:52;;;;;;;1.00;1.00;;;25.10;48.80;24.30;101512.00;;;;5025923;28;20392;-66
2022/07/24 03:20:38;;;;;;;1.52;1.02;;;25.10;48.80;24.30;101509.00;;;;5030835;28;20083;-66
2022/07/24 03:23:24;;;;;;;1.08;1.00;;;25.10;48.80;24.30;101506.00;;;;5022866;28;20057;-66
2022/07/24 03:26:10;;;;;;;0.70;0.70;;;25.10;48.90;24.30;101507.00;;;;5027749;28;20399;-66
2022/07/24 03:28:56;;;;;;;1.05;0.95;;;25.10;48.80;24.20;101501.00;;;;5028786;28;20037;-66
2022/07/24 03:31:42;;;;;;;1.15;0.98;;;25.10;48.90;24.20;101515.00;;;;5022741;28;20042;-66
2022/07/24 03:34:28;;;;;;;1.10;1.08;;;25.00;48.80;24.30;101518.00;;;;5026945;28;20045;-66
2022/07/24 03:37:14;;;;;;;1.48;0.93;;;25.10;49.00;24.20;101514.00;;;;5023573;28;20522;-66
2022/07/24 03:40:00;;;;;;;1.45;1.10;;;25.10;48.90;24.20;101525.00;;;;5025968;28;20034;-66
2022/07/24 03:42:46;;;;;;;1.10;0.93;;;25.10;49.00;24.20;101519.00;;;;5025266;28;20053;-66
2022/07/24 03:45:32;;;;;;;1.33;1.10;;;25.10;49.00;24.20;101519.00;;;;5027272;28;20094;-66
2022/07/24 03:48:19;;;;;;;1.00;0.90;;;25.10;48.90;24.20;101519.00;;;;5026097;28;20045;-66
2022/07/24 03:51:05;;;;;;;1.08;0.95;;;25.10;48.90;24.20;101520.00;;;;5022591;28;20038;-66
2022/07/24 03:53:51;;;;;;;1.30;0.80;;;25.10;48.90;24.20;101515.00;;;;5027607;28;20041;-66
2022/07/24 03:56:37;;;;;;;1.10;1.00;;;25.10;48.90;24.20;101520.00;;;;5025015;28;20475;-66
2022/07/24 03:59:23;;;;;;;0.85;0.82;;;25.00;48.90;24.20;101525.00;;;;5025916;28;20049;-66
2022/07/24 04:02:09;;;;;;;1.10;1.00;;;25.10;48.90;24.20;101529.00;;;;5023861;28;20599;-66
2022/07/24 04:04:55;;;;;;;1.08;1.00;;;25.00;48.90;24.20;101519.00;;;;5024214;28;20049;-66
2022/07/24 04:07:41;;;;;;;1.13;1.02;;;25.10;48.90;24.20;101528.00;;;;5025721;28;20045;-66
2022/07/24 04:10:27;;;;;;;1.10;1.00;;;25.00;48.90;24.20;101520.00;;;;5021425;28;20048;-66
2022/07/24 04:13:13;;;;;;;1.40;1.30;;;25.00;48.90;24.20;101531.00;;;;5022847;28;20453;-66
2022/07/24 04:15:59;;;;;;;1.10;1.00;;;25.00;48.80;24.20;101515.00;;;;5027603;28;20037;-66
2022/07/24 04:18:45;;;;;;;2.38;0.93;;;25.00;48.80;24.20;101518.00;;;;5022259;28;20049;-66
2022/07/24 04:21:31;;;;;;;1.10;1.00;;;25.00;48.80;24.20;101519.00;;;;5023339;28;20037;-66
2022/07/24 04:24:17;;;;;;;1.08;0.98;;;25.00;48.80;24.20;101518.00;;;;5023482;28;20084;-66
2022/07/24 04:27:03;;;;;;;1.38;1.10;;;25.00;48.80;24.20;101514.00;;;;5019144;28;20041;-66
2022/07/24 04:29:49;;;;;;;1.30;1.20;;;25.00;48.80;24.20;101518.00;;;;5030628;28;20045;-66
2022/07/24 04:32:36;;;;;;;1.20;1.05;;;25.00;48.80;24.20;101519.00;;;;5022100;28;20034;-66
2022/07/24 04:35:22;;;;;;;1.50;1.08;;;25.00;48.70;24.20;101509.00;;;;5025516;28;20137;-66
2022/07/24 04:38:08;;;;;;;1.55;0.80;;;25.00;48.80;24.20;101512.00;;;;5021863;28;20383;-66
2022/07/24 04:40:54;;;;;;;1.10;1.00;;;25.00;48.70;24.20;101507.00;;;;5017420;28;20038;-66
2022/07/24 04:43:40;;;;;;;1.17;1.08;;;25.00;48.80;24.20;101506.00;;;;5025069;28;20037;-66
2022/07/24 04:46:27;;;;;;;1.10;0.95;;;25.00;48.70;24.20;101505.00;;;;5017088;28;20052;-66
2022/07/24 04:49:13;;;;;;;1.53;1.13;;;25.00;48.80;24.20;101504.00;;;;5027811;28;20041;-66
2022/07/24 04:51:59;;;;;;;1.40;1.05;;;25.00;48.80;24.20;101509.00;;;;5025287;28;20036;-66
2022/07/24 04:54:45;;;;;;;1.20;1.10;;;25.00;48.80;24.20;101504.00;;;;5022553;28;20283;-66
2022/07/24 04:57:31;;;;;;;3.17;1.10;;;25.00;48.80;24.20;101507.00;;;;5022373;28;20045;-66
2022/07/24 05:00:17;;;;;;;2.72;1.10;;;25.00;48.90;24.20;101497.00;;;;5018098;28;20064;-66
2022/07/24 05:03:03;;;;;;;0.90;0.90;;;25.00;48.80;24.20;101505.00;;;;5021135;28;20056;-66
2022/07/24 05:05:49;;;;;;;1.30;1.20;;;25.00;48.80;24.20;101498.00;;;;5022249;28;20044;-66
2022/07/24 05:08:35;;;;;;;1.65;1.08;;;25.00;48.80;24.20;101504.00;;;;5017186;28;20091;-66
2022/07/24 05:11:21;;;;;;;1.60;1.05;;;25.00;48.90;24.20;101493.00;;;;5019621;28;20045;-66
2022/07/24 05:14:07;;;;;;;1.92;1.02;;;25.00;48.80;24.20;101489.00;;;;5020608;28;20048;-66
2022/07/24 05:16:53;;;;;;;2.28;1.08;;;25.00;48.80;24.20;101491.00;;;;5020322;28;20463;-66
2022/07/24 05:19:40;;;;;;;0.90;0.88;;;25.00;48.80;24.20;101494.00;;;;5026081;28;20057;-66
2022/07/24 05:22:26;;;;;;;1.20;1.10;;;25.00;48.80;24.20;101494.00;;;;5024564;28;20046;-66
2022/07/24 05:25:12;;;;;;;1.10;1.00;;;25.00;48.80;24.20;101492.00;;;;5022468;28;20033;-66
2022/07/24 05:27:58;;;;;;;3.05;1.02;;;25.00;48.80;24.20;101493.00;;;;5015012;28;20427;-66
2022/07/24 05:30:44;;;;;;;1.08;1.00;;;25.00;48.80;24.20;101490.00;;;;5015960;28;20048;-66
2022/07/24 05:33:31;;;;;;;1.58;1.17;;;25.00;48.80;24.20;101494.00;;;;5021150;28;20037;-66
2022/07/24 05:36:17;;;;;;;1.67;1.10;;;25.00;48.80;24.20;101488.00;;;;5019382;28;20560;-66
2022/07/24 05:39:03;;;;;;;1.52;1.10;;;25.10;48.80;24.20;101489.00;;;;5022661;28;20041;-66
2022/07/24 05:41:49;;;;;;;1.03;0.97;;;25.10;48.80;24.20;101491.00;;;;5017965;28;20039;-66
2022/07/24 05:44:37;;;;;;;1.30;1.02;;;25.00;48.80;24.20;101496.00;;;;5016302;28;20475;-66
2022/07/24 05:47:23;;;;;;;1.85;1.13;;;25.10;48.80;24.20;101494.00;;;;5024377;28;20117;-66
2022/07/24 05:50:10;;;;;;;2.97;1.42;;;25.10;48.80;24.20;101496.00;;;;5016930;28;20061;-66
2022/07/24 05:52:56;;;;;;;1.63;1.20;;;25.10;48.80;24.20;101498.00;;;;5016594;28;20120;-66
2022/07/24 05:55:42;;;;;;;2.50;1.30;;;25.00;48.70;24.20;101507.00;;;;5020798;28;20030;-66
2022/07/24 05:58:28;;;;;;;1.00;1.00;;;25.10;48.80;24.20;101505.00;;;;5021275;28;20528;-66
2022/07/24 06:01:14;;;;;;;1.65;1.33;;;25.10;48.80;24.20;101504.00;;;;5021061;28;20039;-68
2022/07/24 06:04:00;;;;;;;1.27;1.10;;;25.10;48.90;24.20;101497.00;;;;5024181;28;20107;-66
2022/07/24 06:06:46;;;;;;;1.40;1.30;;;25.20;48.90;24.20;101496.00;;;;5016711;28;20037;-66
2022/07/24 06:09:32;;;;;;;1.15;1.05;;;25.10;48.90;24.20;101488.00;;;;5022233;28;20049;-66
2022/07/24 06:12:18;;;;;;;1.75;1.30;;;25.10;48.90;24.20;101485.00;;;;5024570;28;20491;-66
2022/07/24 06:15:05;;;;;;;1.15;1.00;;;25.10;48.90;24.20;101496.00;;;;5019388;28;20049;-66
2022/07/24 06:17:51;;;;;;;1.60;1.27;;;25.10;49.00;24.20;101491.00;;;;5026750;28;20041;-66
2022/07/24 06:20:37;;;;;;;1.50;1.40;;;25.10;49.00;24.20;101485.00;;;;5026991;28;20052;-66
2022/07/24 06:23:23;;;;;;;1.42;1.20;;;25.10;49.00;24.20;101486.00;;;;5029162;28;20041;-66
2022/07/24 06:26:09;;;;;;;1.30;1.20;;;25.10;49.20;24.20;101485.00;;;;5027584;28;20375;-66
2022/07/24 06:28:55;;;;;;;1.63;1.50;;;25.10;49.00;24.20;101487.00;;;;5027643;28;20092;-66
2022/07/24 06:31:41;;;;;;;2.20;1.40;;;25.10;49.10;24.20;101494.00;;;;5023387;28;20044;-66
2022/07/24 06:34:27;;;;;;;2.63;1.30;;;25.10;49.10;24.20;101489.00;;;;5024616;28;20037;-66
2022/07/24 06:37:13;;;;;;;2.03;1.30;;;25.10;49.10;24.20;101489.00;;;;5030615;28;20056;-66
2022/07/24 06:39:59;;;;;;;1.85;1.30;;;25.10;49.10;24.20;101490.00;;;;5022907;28;20054;-66
2022/07/24 06:42:46;;;;;;;1.73;1.50;;;25.10;49.10;24.20;101479.00;;;;5026515;28;20045;-66
2022/07/24 06:45:33;;;;;;;1.50;1.30;;;25.20;49.30;24.20;101485.00;;;;5028915;28;20029;-66
2022/07/24 06:48:19;;;;;;;2.00;1.80;;;25.10;49.10;24.20;101483.00;;;;5024982;28;20467;-66
2022/07/24 06:51:05;;;;;;;2.75;2.05;;;25.20;49.20;24.20;101470.00;;;;5028125;28;20046;-66
2022/07/24 06:53:51;;;;;;;2.35;1.75;;;25.10;49.10;24.20;101472.00;;;;5026775;28;20096;-66
2022/07/24 06:56:37;;;;;;;2.83;1.90;;;25.20;49.20;24.20;101473.00;;;;5023830;28;20510;-66
2022/07/24 06:59:23;;;;;;;1.58;1.45;;;25.20;49.10;24.20;101484.00;;;;5027869;28;20494;-66
2022/07/24 07:02:09;;;;;;;3.40;1.77;;;25.20;49.90;24.20;101471.00;;;;5021779;28;20048;-66
2022/07/24 07:04:55;;;;;;;2.05;1.60;;;25.20;49.20;24.20;101484.00;;;;5028084;28;20148;-66
2022/07/24 07:07:43;;;;;;;3.38;2.13;;;25.20;49.20;24.20;101480.00;;;;5024104;28;20060;-66
2022/07/24 07:10:29;;;;;;;3.47;2.05;;;25.20;49.20;24.20;101463.00;;;;5027758;28;20044;-66
2022/07/24 07:13:15;;;;;;;2.05;1.75;;;25.20;49.20;24.20;101469.00;;;;5034044;28;20099;-66
2022/07/24 07:16:01;;;;;;;3.55;2.90;;;25.20;49.20;24.20;101468.00;;;;5022698;28;20049;-66
2022/07/24 07:18:47;;;;;;;10.02;2.90;;;25.20;49.30;24.20;101473.00;;;;5022372;28;20041;-66
2022/07/24 07:21:33;;;;;;;25.90;4.97;;;25.20;49.50;24.20;101474.00;;;;5026924;28;20067;-66
2022/07/24 07:24:19;;;;;;;7.22;3.08;;;25.20;49.50;24.20;101476.00;;;;5024181;28;20565;-66
2022/07/24 07:27:06;;;;;;;5.40;3.33;;;25.20;49.50;24.20;101470.00;;;;5026293;28;20042;-66
2022/07/24 07:29:52;;;;;;;5.57;3.70;;;25.20;49.50;24.20;101466.00;;;;5024161;28;20541;-67
2022/07/24 07:32:38;;;;;;;6.35;3.55;;;25.20;49.50;24.20;101467.00;;;;5022786;28;20041;-66
2022/07/24 07:35:24;;;;;;;4.60;3.50;;;25.20;49.50;24.20;101466.00;;;;5026636;28;20065;-66
2022/07/24 07:38:10;;;;;;;4.60;3.58;;;25.20;49.50;24.20;101472.00;;;;5022399;28;20057;-66
2022/07/24 07:40:56;;;;;;;5.55;4.30;;;25.20;49.50;24.20;101470.00;;;;5023038;28;20092;-66
2022/07/24 07:43:42;;;;;;;5.53;4.05;;;25.20;49.50;24.20;101467.00;;;;5021681;28;20033;-66
2022/07/24 07:46:29;;;;;;;4.75;3.85;;;25.20;49.50;24.20;101467.00;;;;5022819;28;20029;-66
2022/07/24 07:49:15;;;;;;;7.37;4.70;;;25.20;49.50;24.20;101463.00;;;;5028351;28;20050;-66
2022/07/24 07:52:01;;;;;;;6.07;4.35;;;25.20;49.50;24.20;101465.00;;;;5023216;28;20292;-66
2022/07/24 07:54:49;;;;;;;4.60;3.80;;;25.20;49.50;24.20;101462.00;;;;5025360;28;20068;-66
2022/07/24 07:57:35;;;;;;;6.97;4.75;;;25.20;49.50;24.20;101468.00;;;;5021544;28;20041;-66
2022/07/24 08:00:21;;;;;;;5.63;4.88;;;25.30;49.60;24.20;101473.00;;;;5026382;28;20076;-66
2022/07/24 08:03:07;;;;;;;9.00;5.07;;;25.20;49.50;24.20;101454.00;;;;5025741;28;20479;-66
2022/07/24 08:05:53;;;;;;;6.90;4.88;;;25.30;49.60;24.20;101457.00;;;;5019891;28;20041;-66
2022/07/24 08:08:39;;;;;;;6.05;5.18;;;25.30;49.50;24.20;101460.00;;;;5020990;28;20033;-66
2022/07/24 08:11:26;;;;;;;9.43;4.78;;;25.30;49.60;24.20;101449.00;;;;5023255;28;20046;-66
2022/07/24 08:14:12;;;;;;;6.47;4.70;;;25.20;49.50;24.20;101453.00;;;;5022722;28;20087;-66
2022/07/24 08:16:58;;;;;;;8.07;4.60;;;25.30;49.50;24.30;101456.00;;;;5022542;28;20057;-67
2022/07/24 08:19:45;;;;;;;6.50;5.07;;;25.30;49.30;24.30;101459.00;;;;5022552;28;20095;-66
2022/07/24 08:22:31;;;;;;;;;;;25.30;49.30;24.20;101453.00;;;;5023498;28;20490;-66
2022/07/24 08:25:17;;;;;;;4.45;4.05;;;25.40;49.40;24.30;101453.00;;;;5026457;28;19922;-66
2022/07/24 08:28:04;;;;;;;5.18;4.60;;;25.40;49.30;24.30;101462.00;;;;5022261;28;20430;-66
2022/07/24 08:30:50;;;;;;;7.75;4.82;;;25.40;49.40;24.30;101461.00;;;;5036590;28;20386;-66
2022/07/24 08:33:36;;;;;;;5.03;4.53;;;25.40;49.50;24.30;101466.00;;;;5027874;28;20041;-66
2022/07/24 08:36:22;;;;;;;7.30;5.28;;;25.40;49.40;24.30;101461.00;;;;5021809;28;20235;-66
2022/07/24 08:39:08;;;;;;;12.20;5.13;;;25.40;49.30;24.40;101458.00;;;;5027064;28;20773;-66
2022/07/24 08:41:54;;;;;;;12.43;5.80;;;25.50;49.40;24.40;101452.00;;;;5021174;28;20624;-66
2022/07/24 08:44:40;;;;;;;8.48;4.80;;;25.50;49.40;24.50;101456.00;;;;5023437;28;20042;-66
2022/07/24 08:47:26;;;;;;;24.75;6.05;;;25.50;49.40;24.50;101451.00;;;;5025986;28;20124;-66
2022/07/24 08:50:13;;;;;;;5.28;4.55;;;25.50;49.50;24.50;101449.00;;;;5037111;28;20467;-66
2022/07/24 08:53:00;;;;;;;6.18;5.13;;;25.50;49.20;24.60;101451.00;;;;5021453;28;20238;-66
2022/07/24 08:55:46;;;;;;;6.82;5.10;;;25.60;49.30;24.60;101447.00;;;;5036046;28;20064;-66
2022/07/24 08:58:40;;;;;;;5.80;5.20;;;25.60;49.20;24.60;101444.00;;;;5032237;28;20033;-66
2022/07/24 09:01:26;;;;;;;6.78;5.60;;;25.60;49.20;24.60;101446.00;;;;5020539;28;20814;-66
2022/07/24 09:04:47;;;;;;;5.88;5.22;;;25.70;49.30;24.60;101436.00;;;;5026459;28;20038;-66
2022/07/24 09:07:33;;;;;;;7.85;5.45;;;25.70;49.30;24.60;101438.00;;;;5025945;28;20041;-67
2022/07/24 09:10:19;;;;;;;7.10;5.70;;;25.80;49.50;24.60;101442.00;;;;5020100;28;20049;-66
2022/07/24 09:13:16;;;;;;;7.70;5.55;;;25.80;49.40;24.60;101436.00;;;;5025022;28;20397;-66
2022/07/24 09:16:02;;;;;;;8.95;6.13;;;25.80;49.40;24.70;101442.00;;;;5032820;28;20041;-67
2022/07/24 09:19:08;;;;;;;9.15;6.30;;;25.80;49.50;24.70;101435.00;;;;5021131;28;20045;-66
2022/07/24 09:21:54;;;;;;;7.93;6.45;;;25.80;49.50;24.70;101436.00;;;;5023853;28;20132;-66
2022/07/24 09:24:40;;;;;;;7.13;5.75;;;25.90;49.40;24.70;101431.00;;;;5026783;28;20037;-66
2022/07/24 09:27:26;;;;;;;9.63;6.88;;;25.90;49.50;24.80;101431.00;;;;5023707;28;20456;-66
2022/07/24 09:30:36;;;;;;;7.65;6.70;;;25.90;49.50;24.80;101425.00;;;;5023511;28;20044;-66
2022/07/24 09:33:24;;;;;;;10.93;6.95;;;25.90;49.50;24.80;101433.00;;;;5025292;28;20108;-66
2022/07/24 09:36:15;;;;;;;9.07;6.90;;;26.00;49.50;24.80;101429.00;;;;5020272;28;20052;-66
2022/07/24 09:39:01;;;;;;;8.93;6.43;;;26.00;49.60;24.80;101426.00;;;;5018222;28;20045;-66
2022/07/24 09:41:52;;;;;;;9.02;6.47;;;26.00;49.30;24.80;101426.00;;;;5012691;28;20489;-66
2022/07/24 09:44:38;;;;;;;7.05;6.20;;;26.00;49.20;24.90;101421.00;;;;5015604;28;20605;-66
2022/07/24 09:47:24;;;;;;;10.57;6.47;;;26.10;49.30;24.90;101423.00;;;;5009811;28;20156;-67
2022/07/24 09:50:15;;;;;;;14.05;7.03;;;26.10;49.40;24.90;101409.00;;;;5040435;28;20120;-67
2022/07/24 09:53:01;;;;;;;20.50;6.60;;;26.10;49.30;24.90;101420.00;;;;5018323;28;20096;-66
2022/07/24 09:56:14;;;;;;;11.52;6.30;;;26.10;49.30;25.00;101419.00;;;;5011509;28;20037;-67
2022/07/24 09:59:02;;;;;;;11.38;7.10;;;26.10;49.30;25.00;101413.00;;;;5023526;28;20458;-67
2022/07/24 10:01:48;;;;;;;12.30;7.00;;;26.20;49.40;25.00;101415.00;;;;5017818;28;20103;-66
2022/07/24 10:04:35;;;;;;;22.85;7.72;;;26.20;49.40;25.00;101420.00;;;;5036398;28;20050;-66
2022/07/24 10:07:22;;;;;;;9.77;7.03;;;26.20;49.30;25.00;101415.00;;;;5015204;28;20563;-66
2022/07/24 10:10:09;;;;;;;12.70;6.97;;;26.20;49.20;25.10;101411.00;;;;5021297;28;20411;-65
2022/07/24 10:12:55;;;;;;;8.52;6.70;;;26.20;49.30;25.10;101413.00;;;;5019711;28;20380;-66
2022/07/24 10:16:09;;;;;;;7.25;5.88;;;26.30;49.50;25.10;101410.00;;;;5019549;28;20041;-66
2022/07/24 10:19:03;;;;;;;7.30;5.72;;;26.30;49.00;25.10;101415.00;;;;5008139;28;20057;-66
2022/07/24 10:21:54;;;;;;;9.15;5.80;;;26.30;48.90;25.20;101401.00;;;;5033390;28;20045;-66
2022/07/24 10:24:53;;;;;;;14.20;6.32;;;26.40;49.10;25.20;101401.00;;;;5019250;28;20499;-66
2022/07/24 10:27:41;;;;;;;9.98;6.43;;;26.40;49.20;25.30;101416.00;;;;5021215;28;20053;-66
2022/07/24 10:30:28;;;;;;;8.65;6.13;;;26.40;48.80;25.40;101400.00;;;;5020513;28;20138;-66
2022/07/24 10:33:14;;;;;;;9.45;6.35;;;26.50;48.80;25.40;101403.00;;;;5023099;28;20561;-66
2022/07/24 10:36:01;;;;;;;7.15;5.47;;;26.60;49.00;25.40;101402.00;;;;4992309;28;20038;-66
2022/07/24 10:39:13;;;;;;;7.97;5.38;;;26.60;48.90;25.40;101406.00;;;;5021748;28;20072;-65
2022/07/24 10:42:05;;;;;;;9.13;6.22;;;26.60;48.90;25.50;101395.00;;;;5008730;28;20034;-65
2022/07/24 10:45:17;;;;;;;7.47;5.95;;;26.70;48.80;25.50;101394.00;;;;5011202;28;20046;-66
2022/07/24 10:48:30;;;;;;;7.78;5.82;;;26.70;48.80;25.50;101394.00;;;;5021651;28;20475;-65
2022/07/24 10:51:17;;;;;;;6.15;5.55;;;26.80;48.50;25.60;101392.00;;;;5020250;28;20171;-66
2022/07/24 10:54:04;;;;;;;6.80;5.40;;;26.80;48.60;25.60;101407.00;;;;5019994;28;20472;-66
2022/07/24 10:56:50;;;;;;;8.65;5.72;;;26.90;48.40;25.70;101391.00;;;;5024724;28;20048;-65
2022/07/24 10:59:41;;;;;;;6.95;5.43;;;26.90;48.40;25.70;101390.00;;;;5017826;28;20038;-66
2022/07/24 11:02:32;;;;;;;9.23;5.45;;;26.80;47.90;25.70;101385.00;;;;5028191;28;20052;-65
2022/07/24 11:05:26;;;;;;;8.63;6.25;;;27.00;47.90;25.80;101373.00;;;;5024187;28;20081;-65
2022/07/24 11:08:29;;;;;;;6.68;5.30;;;27.00;47.70;25.80;101379.00;;;;5023129;28;20265;-65
2022/07/24 11:11:20;;;;;;;7.82;5.32;;;27.00;47.30;25.80;101374.00;;;;5022000;28;20420;-65
2022/07/24 11:14:06;;;;;;;8.45;5.40;;;27.10;47.30;25.90;101374.00;;;;5023075;28;20461;-65
2022/07/24 11:16:52;;;;;;;10.63;6.00;;;27.10;47.50;25.90;101378.00;;;;5024730;28;20033;-65
2022/07/24 11:19:38;;;;;;;9.82;5.43;;;27.20;47.50;26.00;101382.00;;;;5022568;28;20415;-65
2022/07/24 11:22:50;;;;;;;7.78;5.60;;;27.10;47.00;26.10;101370.00;;;;5026614;28;20049;-65
2022/07/24 11:25:36;;;;;;;9.15;4.75;;;27.30;47.00;26.10;101393.00;;;;5021283;28;20033;-65
2022/07/24 11:28:22;;;;;;;8.48;5.82;;;27.30;47.20;26.20;101368.00;;;;5023985;28;20490;-65
2022/07/24 11:31:10;;;;;;;8.02;5.60;;;27.40;47.10;26.30;101358.00;;;;5017770;28;20038;-65
2022/07/24 11:33:56;;;;;;;7.10;5.20;;;27.50;47.10;26.30;101360.00;;;;5023753;28;20049;-65
2022/07/24 11:36:50;;;;;;;8.27;5.80;;;27.60;47.10;26.30;101364.00;;;;5009487;28;20064;-65
2022/07/24 11:39:39;;;;;;;8.68;5.20;;;27.50;46.60;26.40;101361.00;;;;5010795;28;20043;-65
2022/07/24 11:42:25;;;;;;;8.00;5.03;;;27.60;46.60;26.40;101362.00;;;;5020871;28;20041;-65
2022/07/24 11:45:11;;;;;;;6.43;5.15;;;27.70;46.70;26.50;101363.00;;;;5020219;28;20049;-65
2022/07/24 11:47:58;;;;;;;6.47;4.68;;;27.70;46.50;26.50;101348.00;;;;5022446;28;20567;-66
2022/07/24 11:50:44;;;;;;;9.47;4.73;;;27.80;46.50;26.50;101356.00;;;;5024055;28;20046;-66
2022/07/24 11:53:30;;;;;;;8.75;4.88;;;27.80;46.10;26.50;101338.00;;;;5025154;28;20033;-65
2022/07/24 11:56:16;;;;;;;4.97;4.28;;;27.80;46.10;26.60;101355.00;;;;5048159;28;20063;-65
2022/07/24 11:59:03;;;;;;;5.93;4.35;;;27.90;46.20;26.60;101343.00;;;;5023529;28;20049;-65
2022/07/24 12:01:49;;;;;;;9.18;4.57;;;28.00;45.90;26.60;101341.00;;;;5021994;28;20621;-72
2022/07/24 12:04:35;;;;;;;7.38;5.13;;;28.00;46.30;26.70;101359.00;;;;5023929;28;20097;-65
2022/07/24 12:07:23;;;;;;;5.68;4.30;;;27.90;45.30;26.70;101340.00;;;;5020475;28;20124;-70
2022/07/24 12:10:10;;;;;;;7.22;4.75;;;28.00;45.30;26.70;101332.00;;;;5049166;28;20473;-65
2022/07/24 12:12:56;;;;;;;6.53;4.65;;;28.00;45.20;26.80;101337.00;;;;5020119;28;20132;-65
2022/07/24 12:15:42;;;;;;;6.32;4.60;;;28.10;45.70;26.80;101328.00;;;;5008265;28;20645;-65